Time;durP1;ratioP1;P1;durP2;ratioP2;P2;SDS_P1;SDS_P2;PMS_P1;PMS_P2;Temp;Humidity;BMP_temperature;BMP_pressure;BME280_temperature;BME280_humidity;BME280_pressure;Samples;Min_cycle;Max_cycle;Signal;HPM_P1;HPM_P2
2023/09/02 00:01:16;;;;;;;7.45;3.33;;;;;17.80;96532.00;;;;8285823;28;20503;-69
2023/09/02 00:09:38;;;;;;;7.07;3.35;;;;;17.70;96529.00;;;;8283623;28;20289;-69
2023/09/02 00:13:43;;;;;;;8.70;3.67;;;;;17.70;96524.00;;;;8286271;28;20253;-69
2023/09/02 00:17:47;;;;;;;7.05;3.30;;;;;17.50;96521.00;;;;8286038;28;20244;-69
2023/09/02 00:21:53;;;;;;;7.70;3.88;;;;;17.40;96517.00;;;;8285085;28;20202;-68
2023/09/02 00:25:57;;;;;;;5.22;3.22;;;;;17.20;96521.00;;;;8284101;28;20198;-68
2023/09/02 00:30:01;;;;;;;5.90;3.70;;;;;17.10;96521.00;;;;8282589;28;20281;-68
2023/09/02 00:34:04;;;;;;;6.97;3.30;;;;;17.00;96521.00;;;;8268805;28;20277;-69
2023/09/02 00:38:09;;;;;;;8.63;3.35;;;;;16.80;96524.00;;;;8273178;28;20337;-68
2023/09/02 00:42:15;;;;;;;23.92;3.75;;;;;16.70;96523.00;;;;8285844;28;20559;-69
2023/09/02 00:46:22;;;;;;;215.43;7.70;;;;;16.50;96524.00;;;;8282368;28;20198;-68
2023/09/02 00:50:27;;;;;;;7.95;4.00;;;;;16.40;96522.00;;;;8286442;28;20651;-68
2023/09/02 00:54:33;;;;;;;4.95;3.78;;;;;16.30;96522.00;;;;8285135;28;20206;-68
2023/09/02 00:58:41;;;;;;;7.10;3.42;;;;;16.20;96530.00;;;;8281566;28;20222;-67
2023/09/02 01:02:46;;;;;;;6.68;3.85;;;;;16.10;96520.00;;;;8284366;28;20240;-68
2023/09/02 01:06:51;;;;;;;6.30;4.05;;;;;16.10;96522.00;;;;8284275;28;20706;-68
2023/09/02 01:10:56;;;;;;;24.88;3.80;;;;;16.00;96516.00;;;;8287069;28;20312;-68
2023/09/02 01:14:59;;;;;;;7.20;3.75;;;;;16.00;96519.00;;;;8287121;28;20285;-70
2023/09/02 01:19:02;;;;;;;6.57;4.07;;;;;15.90;96524.00;;;;8283362;28;20233;-69
2023/09/02 01:23:31;;;;;;;12.48;4.28;;;;;15.80;96524.00;;;;8284335;28;20301;-68
2023/09/02 01:27:39;;;;;;;11.18;3.95;;;;;15.70;96518.00;;;;8275962;28;20201;-69
2023/09/02 01:31:43;;;;;;;12.50;4.18;;;;;15.60;96513.00;;;;8281706;28;20703;-68
2023/09/02 01:35:47;;;;;;;106.22;5.72;;;;;15.50;96516.00;;;;8284489;28;20293;-68
2023/09/02 01:39:55;;;;;;;4.80;3.92;;;;;15.50;96517.00;;;;8269600;28;20225;-69
2023/09/02 01:44:03;;;;;;;4.85;3.28;;;;;15.50;96530.00;;;;8284927;28;20198;-69
2023/09/02 01:48:08;;;;;;;6.47;3.63;;;;;15.50;96533.00;;;;8281261;28;20206;-69
2023/09/02 01:52:11;;;;;;;8.88;4.05;;;;;15.50;96539.00;;;;8283407;28;20250;-69
2023/09/02 01:56:16;;;;;;;5.32;3.75;;;;;15.50;96529.00;;;;8281044;28;20209;-68
2023/09/02 02:00:23;;;;;;;4.22;3.53;;;;;15.40;96532.00;;;;8283690;28;20742;-69
2023/09/02 02:04:36;;;;;;;4.32;3.78;;;;;15.40;96540.00;;;;8281398;28;20230;-69
2023/09/02 02:08:54;;;;;;;10.05;3.92;;;;;15.40;96533.00;;;;8281244;28;20913;-69
2023/09/02 02:13:01;;;;;;;82.50;5.38;;;;;15.30;96541.00;;;;8279378;28;20963;-69
2023/09/02 02:17:08;;;;;;;81.10;5.75;;;;;15.20;96541.00;;;;8280862;28;20194;-69
2023/09/02 02:21:11;;;;;;;150.27;6.30;;;;;15.20;96548.00;;;;8283017;28;20230;-69
2023/09/02 02:25:18;;;;;;;63.70;4.97;;;;;15.20;96541.00;;;;8280628;28;20237;-69
2023/09/02 02:29:22;;;;;;;125.25;6.43;;;;;15.10;96543.00;;;;8280762;28;20206;-69
2023/09/02 02:33:26;;;;;;;149.85;9.13;;;;;15.00;96536.00;;;;8280309;28;20215;-69
2023/09/02 02:37:32;;;;;;;32.50;3.83;;;;;14.90;96544.00;;;;8279388;28;20200;-69
2023/09/02 02:41:37;;;;;;;3.17;2.88;;;;;14.90;96542.00;;;;8264341;28;20233;-69
2023/09/02 02:45:42;;;;;;;6.68;3.00;;;;;14.90;96538.00;;;;8282000;28;20221;-69
2023/09/02 02:49:52;;;;;;;4.50;2.83;;;;;14.80;96542.00;;;;8281765;28;20719;-69
2023/09/02 02:53:59;;;;;;;4.53;2.67;;;;;14.70;96547.00;;;;8280797;28;20194;-69
2023/09/02 02:58:03;;;;;;;7.53;3.47;;;;;14.70;96546.00;;;;8280715;28;20580;-69
2023/09/02 03:02:10;;;;;;;40.90;4.43;;;;;14.60;96546.00;;;;8318468;22;20225;-69
2023/09/02 03:06:18;;;;;;;119.38;6.00;;;;;14.60;96552.00;;;;8287875;28;20230;-69
2023/09/02 03:10:21;;;;;;;17.42;4.38;;;;;14.50;96547.00;;;;8291118;28;20709;-68
2023/09/02 03:14:26;;;;;;;11.10;3.72;;;;;14.50;96557.00;;;;8299810;28;20220;-69
2023/09/02 03:18:33;;;;;;;12.18;4.60;;;;;14.50;96556.00;;;;8272229;28;20286;-68
2023/09/02 03:22:41;;;;;;;9.15;4.30;;;;;14.50;96552.00;;;;8305976;28;20193;-67
2023/09/02 03:26:44;;;;;;;8.70;4.38;;;;;14.60;96560.00;;;;8311611;28;20217;-68
2023/09/02 03:30:49;;;;;;;4.35;3.50;;;;;14.60;96553.00;;;;8306431;28;20236;-69
2023/09/02 03:34:53;;;;;;;19.25;4.32;;;;;14.60;96549.00;;;;8296246;28;20201;-67
2023/09/02 03:38:57;;;;;;;7.22;4.03;;;;;14.60;96549.00;;;;8310260;28;20641;-69
2023/09/02 03:43:03;;;;;;;9.52;3.70;;;;;14.60;96548.00;;;;8308473;28;20201;-68
2023/09/02 03:47:07;;;;;;;7.78;4.18;;;;;14.60;96551.00;;;;8309812;28;20198;-68
2023/09/02 03:51:12;;;;;;;5.25;3.45;;;;;14.50;96554.00;;;;8301663;28;20292;-68
2023/09/02 03:55:17;;;;;;;6.03;3.88;;;;;14.50;96556.00;;;;8311321;28;20728;-69
2023/09/02 03:59:23;;;;;;;4.35;3.55;;;;;14.40;96554.00;;;;8305036;28;20237;-68
2023/09/02 04:03:31;;;;;;;2.90;2.70;;;;;14.40;96554.00;;;;8285999;28;20602;-68
2023/09/02 04:07:39;;;;;;;10.60;2.83;;;;;14.40;96556.00;;;;8280681;28;20208;-68
2023/09/02 04:11:46;;;;;;;6.45;3.50;;;;;14.30;96554.00;;;;8281406;28;20199;-68
2023/09/02 04:15:49;;;;;;;3.72;2.53;;;;;14.30;96569.00;;;;8280999;28;20758;-68
2023/09/02 04:19:54;;;;;;;2.92;2.70;;;;;14.20;96565.00;;;;8285762;28;20860;-68
2023/09/02 04:23:57;;;;;;;23.98;3.63;;;;;14.10;96574.00;;;;8286103;28;20663;-67
2023/09/02 04:28:06;;;;;;;22.17;4.00;;;;;14.10;96572.00;;;;8282424;28;20194;-67
2023/09/02 04:32:11;;;;;;;29.65;3.53;;;;;14.10;96579.00;;;;8284382;28;20224;-67
2023/09/02 04:36:14;;;;;;;65.15;4.70;;;;;14.00;96582.00;;;;8284844;28;20603;-67
2023/09/02 04:40:17;;;;;;;28.73;3.63;;;;;14.00;96579.00;;;;8287044;28;20233;-67
2023/09/02 04:44:22;;;;;;;46.65;4.95;;;;;14.00;96582.00;;;;8285177;28;20198;-69
2023/09/02 04:48:28;;;;;;;35.80;4.10;;;;;14.00;96597.00;;;;8284227;28;20206;-68
2023/09/02 04:52:31;;;;;;;61.30;4.85;;;;;14.00;96593.00;;;;8272980;28;20228;-69
2023/09/02 04:56:38;;;;;;;46.50;4.28;;;;;14.00;96598.00;;;;8286919;28;20717;-68
2023/09/02 05:00:42;;;;;;;40.85;4.28;;;;;14.00;96591.00;;;;8284833;28;20692;-69
2023/09/02 05:04:48;;;;;;;27.55;3.53;;;;;14.10;96611.00;;;;8286088;28;20272;-69
2023/09/02 05:08:56;;;;;;;15.98;3.30;;;;;14.10;96603.00;;;;8286048;28;20212;-68
2023/09/02 05:12:59;;;;;;;5.30;3.03;;;;;14.20;96613.00;;;;8285129;28;20212;-68
2023/09/02 05:17:04;;;;;;;13.35;3.97;;;;;14.30;96621.00;;;;8266011;28;20206;-69
2023/09/02 05:21:10;;;;;;;2.70;2.50;;;;;14.30;96621.00;;;;8281128;28;20726;-68
2023/09/02 05:25:15;;;;;;;3.17;2.88;;;;;14.40;96617.00;;;;8283499;28;20280;-68
2023/09/02 05:29:19;;;;;;;5.22;3.30;;;;;14.50;96628.00;;;;8283134;28;20676;-65
2023/09/02 05:33:28;;;;;;;7.90;3.53;;;;;14.60;96629.00;;;;8283324;28;20198;-70
2023/09/02 05:37:31;;;;;;;3.95;3.30;;;;;14.70;96638.00;;;;8264998;28;20290;-68
2023/09/02 05:41:38;;;;;;;4.07;2.72;;;;;14.90;96641.00;;;;8283017;28;20257;-71
2023/09/02 05:45:48;;;;;;;4.50;2.65;;;;;15.00;96643.00;;;;8266901;28;20642;-69
2023/09/02 05:49:53;;;;;;;3.30;2.60;;;;;15.20;96641.00;;;;8283594;28;20232;-70
2023/09/02 05:53:57;;;;;;;2.58;2.38;;;;;15.30;96650.00;;;;8281032;28;20230;-71
2023/09/02 05:58:00;;;;;;;2.70;2.38;;;;;15.40;96641.00;;;;8281228;28;20648;-72
2023/09/02 06:02:07;;;;;;;2.70;2.50;;;;;15.60;96651.00;;;;8280948;28;20233;-71
2023/09/02 06:06:13;;;;;;;2.45;2.35;;;;;15.70;96647.00;;;;8281215;28;20260;-71
2023/09/02 06:10:16;;;;;;;4.00;3.00;;;;;15.90;96640.00;;;;8283682;28;20229;-72
2023/09/02 06:14:20;;;;;;;5.53;3.15;;;;;16.10;96647.00;;;;8280176;28;21068;-71
2023/09/02 06:18:23;;;;;;;3.85;3.05;;;;;16.30;96650.00;;;;8281645;28;20206;-69
2023/09/02 06:22:28;;;;;;;6.50;3.38;;;;;16.60;96648.00;;;;8281491;28;20226;-69
2023/09/02 06:26:32;;;;;;;3.10;2.80;;;;;16.80;96648.00;;;;8277237;28;20225;-69
2023/09/02 06:30:37;;;;;;;4.47;2.67;;;;;17.00;96647.00;;;;8281681;28;20198;-69
2023/09/02 06:34:40;;;;;;;2.92;2.72;;;;;17.30;96654.00;;;;8281421;28;20671;-69
2023/09/02 06:38:45;;;;;;;3.67;2.90;;;;;17.40;96658.00;;;;8262340;28;20644;-69
2023/09/02 06:42:48;;;;;;;4.70;2.80;;;;;17.50;96657.00;;;;8278416;28;20261;-69
2023/09/02 06:46:51;;;;;;;4.78;3.10;;;;;17.60;96665.00;;;;8280271;28;20234;-69
2023/09/02 06:50:55;;;;;;;4.03;2.80;;;;;17.70;96671.00;;;;8258056;28;20206;-70
2023/09/02 06:55:00;;;;;;;5.70;3.28;;;;;17.90;96666.00;;;;8251093;28;20548;-71
2023/09/02 06:59:04;;;;;;;3.45;2.60;;;;;18.10;96683.00;;;;8257636;28;20680;-70
2023/09/02 07:03:07;;;;;;;2.70;2.50;;;;;18.40;96680.00;;;;8279563;28;20253;-70
2023/09/02 07:07:10;;;;;;;7.95;2.95;;;;;18.60;96681.00;;;;8276104;28;20194;-70
2023/09/02 07:11:15;;;;;;;2.83;2.38;;;;;18.90;96680.00;;;;8271901;28;20210;-70
2023/09/02 07:15:18;;;;;;;2.67;2.10;;;;;19.10;96685.00;;;;8273532;28;20233;-69
2023/09/02 07:19:21;;;;;;;3.97;2.38;;;;;19.30;96697.00;;;;8273230;28;20202;-70
2023/09/02 07:23:29;;;;;;;3.90;2.85;;;;;19.70;96690.00;;;;8269211;28;20345;-70
2023/09/02 07:27:34;;;;;;;5.13;2.20;;;;;20.10;96692.00;;;;8271460;28;20244;-70
2023/09/02 07:31:38;;;;;;;2.25;2.03;;;;;20.70;96696.00;;;;8264308;28;20674;-71
2023/09/02 07:35:41;;;;;;;1.98;1.80;;;;;21.40;96697.00;;;;8277034;28;20687;-70
2023/09/02 07:39:44;;;;;;;1.92;1.80;;;;;21.80;96690.00;;;;8276564;28;20206;-70
2023/09/02 07:43:48;;;;;;;3.38;2.05;;;;;22.20;96702.00;;;;8270041;28;20857;-71
2023/09/02 07:47:57;;;;;;;3.05;1.77;;;;;22.70;96705.00;;;;8273759;28;20788;-71
2023/09/02 07:52:00;;;;;;;2.08;1.60;;;;;23.30;96703.00;;;;8277575;28;20210;-72
2023/09/02 07:56:04;;;;;;;2.25;1.75;;;;;24.10;96709.00;;;;8280104;28;20209;-72
2023/09/02 08:00:10;;;;;;;2.35;1.60;;;;;24.90;96713.00;;;;8283979;28;20289;-72
2023/09/02 08:04:16;;;;;;;2.80;1.90;;;;;25.40;96722.00;;;;8285159;28;20240;-72
2023/09/02 08:08:19;;;;;;;1.38;1.38;;;;;26.00;96724.00;;;;8285935;28;20308;-73
2023/09/02 08:12:25;;;;;;;2.90;1.58;;;;;26.60;96728.00;;;;8282910;28;20863;-72
2023/09/02 08:16:29;;;;;;;2.35;1.77;;;;;26.90;96734.00;;;;8279666;28;20579;-73
2023/09/02 08:20:33;;;;;;;2.03;1.65;;;;;27.20;96742.00;;;;8282100;28;20226;-73
2023/09/02 08:24:37;;;;;;;2.65;1.60;;;;;27.50;96742.00;;;;8280967;28;20293;-73
2023/09/02 08:28:47;;;;;;;2.45;1.63;;;;;27.70;96744.00;;;;8260752;28;20205;-74
2023/09/02 08:32:52;;;;;;;2.80;1.63;;;;;28.10;96749.00;;;;8282839;28;20559;-74
2023/09/02 08:36:59;;;;;;;1.38;1.27;;;;;28.10;96749.00;;;;8284188;28;20194;-74
2023/09/02 08:41:05;;;;;;;1.63;1.52;;;;;28.50;96753.00;;;;8276893;28;20214;-74
2023/09/02 08:45:13;;;;;;;1.60;1.50;;;;;28.90;96756.00;;;;8282580;28;20206;-74
2023/09/02 08:49:18;;;;;;;9.40;1.60;;;;;29.30;96757.00;;;;8281875;28;20204;-75
2023/09/02 08:53:22;;;;;;;1.33;1.30;;;;;29.70;96765.00;;;;8283205;28;20229;-74
2023/09/02 08:57:25;;;;;;;1.33;1.33;;;;;30.00;96770.00;;;;8282024;28;21796;-74
2023/09/02 09:01:31;;;;;;;1.52;1.40;;;;;29.80;96768.00;;;;8280458;28;20226;-75
2023/09/02 09:05:40;;;;;;;1.63;1.52;;;;;29.80;96762.00;;;;8276434;28;20202;-74
2023/09/02 09:09:47;;;;;;;1.40;1.30;;;;;29.80;96774.00;;;;8281651;28;20202;-74
2023/09/02 09:13:56;;;;;;;1.50;1.40;;;;;29.90;96768.00;;;;8263011;28;21088;-73
2023/09/02 09:18:03;;;;;;;2.45;1.33;;;;;30.30;96773.00;;;;8279466;28;20325;-74
2023/09/02 09:22:10;;;;;;;2.92;1.20;;;;;30.90;96774.00;;;;8282503;28;20230;-75
2023/09/02 09:26:15;;;;;;;1.73;1.20;;;;;30.60;96781.00;;;;8279896;28;20198;-74
2023/09/02 09:30:30;;;;;;;1.50;1.40;;;;;30.30;96777.00;;;;8274880;28;21010;-74
2023/09/02 09:34:37;;;;;;;1.42;1.40;;;;;30.40;96782.00;;;;8274216;28;20199;-74
2023/09/02 09:38:42;;;;;;;1.50;1.27;;;;;30.50;96789.00;;;;8272977;28;20211;-73
2023/09/02 09:42:45;;;;;;;1.23;1.23;;;;;30.40;96797.00;;;;8281847;28;20237;-74
2023/09/02 09:46:53;;;;;;;1.33;1.10;;;;;30.50;96794.00;;;;8275885;28;20198;-74
2023/09/02 09:50:57;;;;;;;1.50;1.40;;;;;30.70;96795.00;;;;8283512;28;20290;-74
2023/09/02 09:55:01;;;;;;;1.30;1.20;;;;;30.70;96799.00;;;;8282539;28;20431;-75
2023/09/02 09:59:09;;;;;;;4.10;1.60;;;;;30.60;96806.00;;;;8280255;28;20306;-75
2023/09/02 10:03:12;;;;;;;3.60;1.40;;;;;30.60;96802.00;;;;8266180;28;20238;-74
2023/09/02 10:07:19;;;;;;;1.10;1.10;;;;;30.90;96808.00;;;;8264032;28;20217;-73
2023/09/02 10:11:26;;;;;;;1.20;1.20;;;;;30.70;96822.00;;;;8257765;28;20280;-74
2023/09/02 10:15:30;;;;;;;1.15;1.15;;;;;29.60;96820.00;;;;8275187;28;20286;-73
2023/09/02 10:19:37;;;;;;;1.10;1.10;;;;;29.00;96810.00;;;;8280241;28;20774;-73
2023/09/02 10:23:44;;;;;;;1.95;1.27;;;;;28.90;96808.00;;;;8276864;28;20232;-73
2023/09/02 10:28:00;;;;;;;1.33;1.33;;;;;28.80;96807.00;;;;8279100;28;20204;-74
2023/09/02 10:32:12;;;;;;;1.30;1.30;;;;;28.90;96817.00;;;;8278838;28;20202;-74
2023/09/02 10:36:19;;;;;;;1.42;1.42;;;;;29.20;96810.00;;;;8279035;28;20198;-75
2023/09/02 10:40:26;;;;;;;1.25;1.20;;;;;29.80;96805.00;;;;8279503;28;20208;-75
2023/09/02 10:44:32;;;;;;;1.40;1.30;;;;;29.30;96806.00;;;;8280537;28;20693;-76
2023/09/02 10:48:38;;;;;;;1.52;1.42;;;;;29.40;96804.00;;;;8276592;28;20266;-75
2023/09/02 10:52:46;;;;;;;1.85;1.20;;;;;29.40;96807.00;;;;8271972;28;20289;-71
2023/09/02 10:57:14;;;;;;;1.95;1.85;;;;;29.40;96804.00;;;;8277733;28;20758;-77
2023/09/02 11:01:18;;;;;;;1.20;1.20;;;;;29.10;96804.00;;;;8277436;28;20210;-76
2023/09/02 11:05:23;;;;;;;1.50;1.40;;;;;28.80;96806.00;;;;8280305;28;20198;-77
2023/09/02 11:09:50;;;;;;;1.90;1.70;;;;;28.40;96804.00;;;;8278244;28;20225;-77
2023/09/02 11:14:21;;;;;;;1.50;1.40;;;;;28.10;96815.00;;;;8279459;28;20272;-78
2023/09/02 11:18:32;;;;;;;1.40;1.30;;;;;27.80;96815.00;;;;8276337;28;20202;-75
2023/09/02 11:22:55;;;;;;;2.22;1.35;;;;;27.50;96813.00;;;;8279384;28;20237;-76
2023/09/02 11:27:00;;;;;;;1.58;1.40;;;;;27.50;96818.00;;;;8279681;28;20816;-77
2023/09/02 11:31:13;;;;;;;1.67;1.40;;;;;27.60;96825.00;;;;8271722;28;20309;-76
2023/09/02 11:35:28;;;;;;;1.52;1.40;;;;;27.80;96829.00;;;;8272302;28;20347;-76
2023/09/02 11:39:33;;;;;;;1.60;1.50;;;;;27.90;96825.00;;;;8273324;28;20226;-75
2023/09/02 11:43:37;;;;;;;2.67;1.30;;;;;28.30;96826.00;;;;8270136;28;21082;-75
2023/09/02 11:47:40;;;;;;;1.50;1.40;;;;;28.70;96823.00;;;;8269996;28;20238;-76
2023/09/02 11:51:45;;;;;;;3.03;1.63;;;;;29.00;96818.00;;;;8268515;28;20206;-76
2023/09/02 11:55:51;;;;;;;2.70;1.50;;;;;29.30;96823.00;;;;8273858;28;20221;-77
2023/09/02 11:59:56;;;;;;;3.58;1.52;;;;;29.10;96824.00;;;;8272441;28;20289;-73
2023/09/02 12:04:02;;;;;;;1.23;1.23;;;;;28.80;96817.00;;;;8276265;28;20237;-74
2023/09/02 12:08:10;;;;;;;1.08;1.08;;;;;28.70;96814.00;;;;8278687;28;20206;-74
2023/09/02 12:12:15;;;;;;;3.22;1.60;;;;;28.20;96815.00;;;;8276556;28;20207;-75
2023/09/02 12:16:18;;;;;;;2.38;1.50;;;;;28.00;96810.00;;;;8277147;28;20198;-75
2023/09/02 12:20:28;;;;;;;1.23;1.23;;;;;27.70;96810.00;;;;8276898;28;20201;-75
2023/09/02 12:24:32;;;;;;;1.38;1.35;;;;;27.70;96813.00;;;;8261066;28;20257;-75
2023/09/02 12:28:36;;;;;;;1.63;1.50;;;;;27.30;96806.00;;;;8279763;28;20761;-75
2023/09/02 12:32:39;;;;;;;1.67;1.30;;;;;27.20;96800.00;;;;8256210;28;20202;-75
2023/09/02 12:36:42;;;;;;;1.50;1.40;;;;;27.10;96793.00;;;;8278704;28;20202;-75
2023/09/02 12:40:57;;;;;;;1.23;1.23;;;;;27.40;96779.00;;;;8282089;28;20764;-73
2023/09/02 12:45:04;;;;;;;1.13;1.13;;;;;27.90;96785.00;;;;8284128;28;20284;-75
2023/09/02 12:49:07;;;;;;;2.83;1.30;;;;;28.30;96786.00;;;;8282580;28;20959;-76
2023/09/02 12:53:14;;;;;;;2.20;1.20;;;;;28.10;96792.00;;;;8280380;28;20348;-76
2023/09/02 12:57:21;;;;;;;1.20;1.20;;;;;27.70;96784.00;;;;8280790;28;20229;-76
2023/09/02 13:01:24;;;;;;;1.40;1.30;;;;;27.50;96794.00;;;;8282799;28;20214;-76
2023/09/02 13:05:38;;;;;;;1.40;1.30;;;;;27.30;96795.00;;;;8280714;28;20210;-77
2023/09/02 13:09:43;;;;;;;1.48;1.30;;;;;27.10;96797.00;;;;8279816;28;20840;-76
2023/09/02 13:13:48;;;;;;;1.42;1.30;;;;;26.90;96793.00;;;;8282740;28;20682;-76
2023/09/02 13:17:51;;;;;;;1.50;1.40;;;;;26.80;96783.00;;;;8277404;28;20232;-78
2023/09/02 13:21:54;;;;;;;1.50;1.40;;;;;26.80;96778.00;;;;8276493;28;20280;-78
2023/09/02 13:25:58;;;;;;;1.20;1.20;;;;;27.00;96784.00;;;;8278557;28;20247;-78
2023/09/02 13:30:04;;;;;;;1.50;1.40;;;;;27.50;96788.00;;;;8276666;28;20208;-76
2023/09/02 13:34:07;;;;;;;2.75;1.15;;;;;27.80;96789.00;;;;8276722;28;20774;-79
2023/09/02 13:38:15;;;;;;;2.22;1.30;;;;;27.90;96791.00;;;;8261626;28;20209;-79
2023/09/02 13:42:22;;;;;;;1.30;1.20;;;;;28.30;96796.00;;;;8280318;28;20726;-79
2023/09/02 13:46:34;;;;;;;1.40;1.40;;;;;28.70;96788.00;;;;8274555;28;20225;-78
2023/09/02 13:50:42;;;;;;;1.30;1.30;;;;;28.90;96789.00;;;;8277300;28;20285;-81
2023/09/02 13:54:45;;;;;;;2.35;1.40;;;;;29.10;96792.00;;;;8277994;28;20859;-81
2023/09/02 13:58:51;;;;;;;1.55;1.45;;;;;29.50;96798.00;;;;8273218;28;20205;-81
2023/09/02 14:02:56;;;;;;;1.50;1.40;;;;;29.40;96810.00;;;;8277505;28;20237;-81
2023/09/02 14:07:03;;;;;;;3.70;1.35;;;;;29.80;96801.00;;;;8280160;28;20206;-81
2023/09/02 14:11:09;;;;;;;2.53;1.40;;;;;30.30;96809.00;;;;8282867;28;20688;-81
2023/09/02 14:15:12;;;;;;;1.38;1.27;;;;;30.30;96819.00;;;;8281770;28;20315;-81
2023/09/02 14:19:20;;;;;;;1.30;1.20;;;;;30.20;96812.00;;;;8282175;28;20309;-81
2023/09/02 14:23:25;;;;;;;2.00;1.30;;;;;30.60;96820.00;;;;8282042;28;20218;-81
2023/09/02 14:27:32;;;;;;;1.17;1.17;;;;;30.90;96828.00;;;;8282168;28;20198;-81
2023/09/02 14:31:35;;;;;;;1.50;1.40;;;;;31.20;96837.00;;;;8280680;28;20855;-81
2023/09/02 14:35:39;;;;;;;1.45;1.20;;;;;30.90;96839.00;;;;8282060;28;20198;-82
2023/09/02 14:39:43;;;;;;;3.50;1.40;;;;;30.40;96839.00;;;;8277730;28;20296;-81
2023/09/02 14:43:47;;;;;;;1.30;1.20;;;;;29.90;96843.00;;;;8283213;28;21016;-81
2023/09/02 14:47:54;;;;;;;4.40;1.40;;;;;29.60;96843.00;;;;8283202;28;20205;-81
2023/09/02 14:52:00;;;;;;;2.20;1.15;;;;;29.40;96839.00;;;;8282226;28;20226;-81
2023/09/02 14:56:05;;;;;;;1.88;1.20;;;;;29.60;96845.00;;;;8281795;28;20627;-81
2023/09/02 15:00:12;;;;;;;2.17;1.25;;;;;29.10;96839.00;;;;8277022;28;20205;-81
2023/09/02 15:04:20;;;;;;;1.50;1.40;;;;;28.30;96843.00;;;;8282197;28;20264;-81
2023/09/02 15:08:29;;;;;;;2.35;1.50;;;;;28.10;96851.00;;;;8282310;28;20290;-81
2023/09/02 15:12:33;;;;;;;1.40;1.30;;;;;27.90;96841.00;;;;8281709;28;20202;-83
2023/09/02 15:16:38;;;;;;;2.00;1.35;;;;;27.60;96837.00;;;;8280982;28;20212;-81
2023/09/02 15:20:41;;;;;;;1.20;1.20;;;;;27.70;96848.00;;;;8282139;28;20205;-82
2023/09/02 15:24:48;;;;;;;1.58;1.42;;;;;28.00;96852.00;;;;8278653;28;20337;-82
2023/09/02 15:28:51;;;;;;;1.20;1.20;;;;;28.30;96860.00;;;;8281701;28;20305;-82
2023/09/02 15:33:00;;;;;;;1.55;1.50;;;;;28.30;96854.00;;;;8281652;28;20198;-81
2023/09/02 15:37:05;;;;;;;1.23;1.23;;;;;28.40;96852.00;;;;8281406;28;20198;-80
2023/09/02 15:41:09;;;;;;;1.35;1.35;;;;;28.60;96851.00;;;;8281097;28;20206;-81
2023/09/02 15:45:21;;;;;;;1.60;1.50;;;;;28.90;96852.00;;;;8280995;28;20254;-82
2023/09/02 15:49:27;;;;;;;1.58;1.48;;;;;29.00;96855.00;;;;8278504;28;20209;-84
2023/09/02 15:53:33;;;;;;;1.45;1.35;;;;;28.90;96854.00;;;;8281274;28;20233;-81
2023/09/02 15:57:38;;;;;;;1.88;1.15;;;;;28.90;96849.00;;;;8280817;28;20208;-81
2023/09/02 16:01:44;;;;;;;1.52;1.40;;;;;28.80;96847.00;;;;8281256;28;20345;-82
2023/09/02 16:05:50;;;;;;;1.27;1.27;;;;;28.70;96859.00;;;;8279311;28;20242;-82
2023/09/02 16:09:55;;;;;;;1.42;1.40;;;;;28.60;96846.00;;;;8280069;28;20533;-80
2023/09/02 16:13:59;;;;;;;1.15;1.15;;;;;28.70;96849.00;;;;8272025;28;20218;-82
2023/09/02 16:18:05;;;;;;;1.48;1.23;;;;;28.80;96864.00;;;;8286886;28;20237;-80
2023/09/02 16:22:08;;;;;;;1.35;1.30;;;;;28.90;96860.00;;;;8285866;28;20282;-80
2023/09/02 16:26:11;;;;;;;1.65;1.45;;;;;29.00;96855.00;;;;8287674;28;20944;-82
2023/09/02 16:30:18;;;;;;;3.47;1.20;;;;;29.00;96857.00;;;;8279918;28;20202;-81
2023/09/02 16:34:23;;;;;;;1.48;1.38;;;;;28.90;96865.00;;;;8291962;28;20285;-80
2023/09/02 16:38:26;;;;;;;1.30;1.30;;;;;28.60;96862.00;;;;8282791;28;20224;-82
2023/09/02 16:42:31;;;;;;;1.13;1.13;;;;;28.30;96869.00;;;;8285842;28;20237;-81
2023/09/02 16:46:40;;;;;;;1.30;1.20;;;;;27.90;96866.00;;;;8278950;28;20797;-84
2023/09/02 16:50:45;;;;;;;1.15;1.13;;;;;27.60;96870.00;;;;8282462;28;20638;-84
2023/09/02 16:54:48;;;;;;;1.23;1.23;;;;;27.30;96865.00;;;;8275668;28;20658;-81
2023/09/02 16:58:52;;;;;;;1.23;1.23;;;;;26.90;96860.00;;;;8279944;28;20214;-81
2023/09/02 17:02:57;;;;;;;1.60;1.50;;;;;26.40;96866.00;;;;8281635;28;20314;-82
2023/09/02 17:07:01;;;;;;;3.80;1.30;;;;;26.00;96862.00;;;;8262464;28;20320;-82
2023/09/02 17:11:07;;;;;;;2.47;1.50;;;;;25.70;96864.00;;;;8280241;28;20313;-82
2023/09/02 17:15:15;;;;;;;1.45;1.35;;;;;25.30;96867.00;;;;8279756;28;20993;-85
2023/09/02 17:19:21;;;;;;;1.30;1.20;;;;;25.00;96867.00;;;;8279260;28;20805;-82
2023/09/02 17:23:28;;;;;;;2.97;2.00;;;;;24.70;96875.00;;;;8279140;28;20289;-83
2023/09/02 17:27:31;;;;;;;3.42;2.58;;;;;24.50;96877.00;;;;8283573;28;20639;-83
2023/09/02 17:31:35;;;;;;;2.65;2.45;;;;;24.20;96881.00;;;;8281802;28;20297;-83
2023/09/02 17:35:39;;;;;;;1.95;1.60;;;;;24.00;96881.00;;;;8278436;28;20309;-75
2023/09/02 17:39:44;;;;;;;1.50;1.50;;;;;23.70;96871.00;;;;8279079;28;20277;-83
2023/09/02 17:43:47;;;;;;;3.38;1.65;;;;;23.50;96876.00;;;;8284190;28;20249;-84
2023/09/02 17:47:50;;;;;;;3.75;1.70;;;;;23.30;96874.00;;;;8284319;28;20724;-85
2023/09/02 17:51:55;;;;;;;1.60;1.50;;;;;23.10;96871.00;;;;8284741;28;20738;-83
2023/09/02 17:56:01;;;;;;;2.08;1.80;;;;;23.00;96878.00;;;;8283013;28;20206;-84
2023/09/02 18:00:06;;;;;;;2.47;1.92;;;;;22.90;96876.00;;;;8283436;28;20281;-83
2023/09/02 18:04:09;;;;;;;1.75;1.65;;;;;22.80;96882.00;;;;8283136;28;20230;-83
2023/09/02 18:08:14;;;;;;;7.07;2.20;;;;;22.50;96882.00;;;;8283764;28;22639;-83
2023/09/02 18:12:18;;;;;;;6.82;2.33;;;;;22.30;96881.00;;;;8267927;28;20404;-83
2023/09/02 18:16:26;;;;;;;5.60;1.90;;;;;22.00;96887.00;;;;8267293;28;20296;-83
2023/09/02 18:20:30;;;;;;;3.55;1.67;;;;;21.80;96889.00;;;;8284129;28;20285;-83
2023/09/02 18:24:36;;;;;;;2.97;1.90;;;;;21.60;96890.00;;;;8283842;28;20250;-84
2023/09/02 18:28:43;;;;;;;3.35;1.80;;;;;21.50;96888.00;;;;8282381;28;20233;-83
2023/09/02 18:32:46;;;;;;;2.75;1.70;;;;;21.30;96900.00;;;;8283905;28;20213;-83
2023/09/02 18:36:49;;;;;;;2.95;2.05;;;;;21.20;96903.00;;;;8282574;28;20587;-83
2023/09/02 18:40:56;;;;;;;3.72;2.20;;;;;21.10;96903.00;;;;8283792;28;20733;-83
2023/09/02 18:44:59;;;;;;;3.00;1.90;;;;;21.00;96903.00;;;;8283162;28;20229;-83
2023/09/02 18:49:03;;;;;;;3.95;2.00;;;;;20.80;96897.00;;;;8283911;28;20759;-83
2023/09/02 18:53:07;;;;;;;3.25;1.70;;;;;20.60;96904.00;;;;8282359;28;20918;-83
2023/09/02 18:57:13;;;;;;;1.67;1.58;;;;;20.40;96900.00;;;;8281166;28;20208;-83
2023/09/02 19:01:19;;;;;;;3.25;1.98;;;;;20.20;96904.00;;;;8284018;28;20806;-82
2023/09/02 19:05:23;;;;;;;3.28;1.60;;;;;20.00;96912.00;;;;8297329;28;20317;-83
2023/09/02 19:09:29;;;;;;;5.32;2.20;;;;;19.80;96908.00;;;;8297827;28;20229;-82
2023/09/02 19:13:35;;;;;;;5.13;2.45;;;;;19.60;96909.00;;;;8297570;28;20285;-83
2023/09/02 19:17:39;;;;;;;3.30;1.98;;;;;19.50;96906.00;;;;8297937;28;20405;-83
2023/09/02 19:21:43;;;;;;;3.00;2.30;;;;;19.30;96905.00;;;;8296818;28;20205;-82
2023/09/02 19:25:47;;;;;;;3.72;2.08;;;;;19.20;96907.00;;;;8297047;28;20229;-82
2023/09/02 19:29:54;;;;;;;4.13;2.15;;;;;19.00;96915.00;;;;8297267;28;20585;-82
2023/09/02 19:33:57;;;;;;;2.25;2.15;;;;;18.90;96924.00;;;;8296497;28;20194;-81
2023/09/02 19:38:01;;;;;;;3.53;3.00;;;;;18.80;96926.00;;;;8297010;28;20237;-82
2023/09/02 19:42:05;;;;;;;3.97;2.90;;;;;18.80;96922.00;;;;8297890;28;20339;-81
2023/09/02 19:46:11;;;;;;;2.83;2.58;;;;;18.70;96936.00;;;;8296936;28;20233;-81
2023/09/02 19:50:17;;;;;;;3.65;2.28;;;;;18.60;96939.00;;;;8304782;28;20194;-81
2023/09/02 19:54:20;;;;;;;2.78;2.55;;;;;18.60;96944.00;;;;8304436;28;20193;-81
2023/09/02 19:58:23;;;;;;;5.50;2.85;;;;;18.50;96940.00;;;;8303659;28;20210;-81
2023/09/02 20:02:28;;;;;;;3.90;3.00;;;;;18.50;96951.00;;;;8299439;28;20226;-81
2023/09/02 20:06:31;;;;;;;8.73;3.28;;;;;18.40;96953.00;;;;8287166;28;20308;-81
2023/09/02 20:10:35;;;;;;;3.85;2.40;;;;;18.30;96958.00;;;;8286091;28;20598;-81
2023/09/02 20:14:40;;;;;;;2.72;2.53;;;;;18.30;96955.00;;;;8280738;28;20202;-81
2023/09/02 20:18:45;;;;;;;3.28;2.80;;;;;18.20;96958.00;;;;8283140;28;20206;-81
2023/09/02 20:22:51;;;;;;;3.75;2.85;;;;;18.20;96973.00;;;;8280999;28;20217;-80
2023/09/02 20:26:55;;;;;;;3.58;2.42;;;;;18.20;96982.00;;;;8282454;28;20233;-80
2023/09/02 20:30:58;;;;;;;5.25;3.10;;;;;18.10;96973.00;;;;8282446;28;20237;-75